Hauptseite
METAR-TAF:

METAR-TAF

Flughäfen :

Leipzig-Altenburg Airport

Altenburg, Deutschland

Breite: 50-58N, Länge: 012-30E, Höhe: 195 m

Beobachtung

Neuester Wetterbericht von vor 30 Minuten, um 23:20 UTC
Wind 2 kt aus Südost
Temperatur 7°C
Luftfeuchtigkeit 87%
Luftdruck 1022 hPa
Sichtweite 10 km oder mehr

METAR: EDAC 302320Z AUTO 14002KT 9999 // SCT240/// 07/05 Q1022

Zeit: 01:50 (23:50 UTC)

Prognose

Neuester Wetterbericht von vor 9 Stunden und 50 Minuten, um 14:00 UTC
Gültige Prognose vom 30 um 15 UTC bis 30 um 24 UTC
Wind 7 kt aus Nord/Nordost
Sichtweite 10 km oder mehr
keine Wolken unter 1500 m und keine Kumulonimbus oder Gewitterwolken
Übergehend zu
vom 30 um 18 UTC bis 30 um 20 UTC
Wind 3 kt aus unterschiedlichen Richtungen

TAF: EDAC 301400Z 3015/3024 03007KT CAVOK BECMG 3018/3020 VRB03KT

Wetterbeobachtungen und Prognosen von mehr als 4000 Flughäfen (METAR und TAF Bericht).

Die verfügbaren Stationen werden durch gelbe und rote Markierungen auf der Karte dargestellt.

Führen Sie die Maus auf sie, um den Namen der Station zu sehen.

Darauf klicken, um die Beobachtung von Wetterbeobachtungen und Prognosen zu sehen.

Um die Karte zu ändern : klicken Sie auf den grünen Tasten mit einem schwarzen Kreuz Zum Vergrößern, auf den grünen Button mit einem Gedankenstrich zu verkleinern, oder auf die grünen Pfeile für benachbarte Karten.


METAR-TAF: